sensor_id;sensor_type;location;lat;lon;timestamp;P1;durP1;ratioP1;P2;durP2;ratioP2
70297;SDS011;57702;44.420;20.298;2023-01-15T00:02:03;44.88;;;15.05;;
70297;SDS011;57702;44.420;20.298;2023-01-15T00:04:30;37.30;;;15.18;;
70297;SDS011;57702;44.420;20.298;2023-01-15T00:06:56;30.83;;;11.55;;
70297;SDS011;57702;44.420;20.298;2023-01-15T00:09:22;15.27;;;9.80;;
70297;SDS011;57702;44.420;20.298;2023-01-15T00:11:48;25.00;;;11.18;;
70297;SDS011;57702;44.420;20.298;2023-01-15T00:14:15;11.90;;;8.63;;
70297;SDS011;57702;44.420;20.298;2023-01-15T00:16:41;18.92;;;8.82;;
70297;SDS011;57702;44.420;20.298;2023-01-15T00:19:09;28.20;;;9.82;;
70297;SDS011;57702;44.420;20.298;2023-01-15T00:21:38;23.15;;;10.57;;
70297;SDS011;57702;44.420;20.298;2023-01-15T00:24:05;36.53;;;13.23;;
70297;SDS011;57702;44.420;20.298;2023-01-15T00:26:50;36.10;;;14.15;;
70297;SDS011;57702;44.420;20.298;2023-01-15T00:29:35;36.47;;;13.20;;
70297;SDS011;57702;44.420;20.298;2023-01-15T00:32:04;46.75;;;14.05;;
70297;SDS011;57702;44.420;20.298;2023-01-15T00:34:33;28.23;;;12.27;;
70297;SDS011;57702;44.420;20.298;2023-01-15T00:37:00;19.88;;;11.35;;
70297;SDS011;57702;44.420;20.298;2023-01-15T00:39:26;18.27;;;10.43;;
70297;SDS011;57702;44.420;20.298;2023-01-15T00:41:53;20.95;;;10.07;;
70297;SDS011;57702;44.420;20.298;2023-01-15T00:44:20;20.65;;;8.63;;
70297;SDS011;57702;44.420;20.298;2023-01-15T00:46:47;26.20;;;10.43;;
70297;SDS011;57702;44.420;20.298;2023-01-15T00:49:14;33.30;;;12.05;;
70297;SDS011;57702;44.420;20.298;2023-01-15T00:51:41;22.25;;;10.75;;
70297;SDS011;57702;44.420;20.298;2023-01-15T00:54:07;17.00;;;11.00;;
70297;SDS011;57702;44.420;20.298;2023-01-15T00:56:33;32.90;;;13.65;;
70297;SDS011;57702;44.420;20.298;2023-01-15T00:59:01;33.28;;;11.80;;
70297;SDS011;57702;44.420;20.298;2023-01-15T01:01:27;23.52;;;12.05;;
70297;SDS011;57702;44.420;20.298;2023-01-15T01:03:53;11.32;;;7.63;;
70297;SDS011;57702;44.420;20.298;2023-01-15T01:06:19;19.30;;;9.32;;
70297;SDS011;57702;44.420;20.298;2023-01-15T01:08:46;46.83;;;13.57;;
70297;SDS011;57702;44.420;20.298;2023-01-15T01:11:14;34.78;;;12.43;;
70297;SDS011;57702;44.420;20.298;2023-01-15T01:13:41;39.53;;;13.32;;
70297;SDS011;57702;44.420;20.298;2023-01-15T01:18:54;42.00;;;11.38;;
70297;SDS011;57702;44.420;20.298;2023-01-15T01:21:21;22.02;;;7.07;;
70297;SDS011;57702;44.420;20.298;2023-01-15T01:23:47;15.43;;;8.57;;
70297;SDS011;57702;44.420;20.298;2023-01-15T01:26:13;8.43;;;6.28;;
70297;SDS011;57702;44.420;20.298;2023-01-15T01:28:40;13.45;;;8.40;;
70297;SDS011;57702;44.420;20.298;2023-01-15T01:31:07;13.10;;;8.82;;
70297;SDS011;57702;44.420;20.298;2023-01-15T01:33:33;7.93;;;6.55;;
70297;SDS011;57702;44.420;20.298;2023-01-15T01:35:59;20.08;;;8.95;;
70297;SDS011;57702;44.420;20.298;2023-01-15T01:38:25;14.80;;;9.38;;
70297;SDS011;57702;44.420;20.298;2023-01-15T01:40:51;24.58;;;8.32;;
70297;SDS011;57702;44.420;20.298;2023-01-15T01:43:18;8.82;;;6.18;;
70297;SDS011;57702;44.420;20.298;2023-01-15T01:45:45;9.48;;;6.68;;
70297;SDS011;57702;44.420;20.298;2023-01-15T01:48:11;30.83;;;8.15;;
70297;SDS011;57702;44.420;20.298;2023-01-15T01:50:38;6.63;;;5.40;;
70297;SDS011;57702;44.420;20.298;2023-01-15T01:53:08;8.98;;;6.28;;
70297;SDS011;57702;44.420;20.298;2023-01-15T01:55:34;10.63;;;7.45;;
70297;SDS011;57702;44.420;20.298;2023-01-15T01:58:01;10.98;;;6.85;;
70297;SDS011;57702;44.420;20.298;2023-01-15T02:00:29;10.70;;;6.93;;
70297;SDS011;57702;44.420;20.298;2023-01-15T02:02:56;22.67;;;10.00;;
70297;SDS011;57702;44.420;20.298;2023-01-15T02:05:25;13.23;;;8.05;;
70297;SDS011;57702;44.420;20.298;2023-01-15T02:07:52;8.43;;;6.88;;
70297;SDS011;57702;44.420;20.298;2023-01-15T02:10:19;12.40;;;7.47;;
70297;SDS011;57702;44.420;20.298;2023-01-15T02:12:47;13.32;;;7.10;;
70297;SDS011;57702;44.420;20.298;2023-01-15T02:15:16;6.75;;;6.20;;
70297;SDS011;57702;44.420;20.298;2023-01-15T02:18:46;36.95;;;6.57;;
70297;SDS011;57702;44.420;20.298;2023-01-15T02:28:03;7.15;;;5.85;;
70297;SDS011;57702;44.420;20.298;2023-01-15T02:30:32;7.28;;;6.55;;
70297;SDS011;57702;44.420;20.298;2023-01-15T02:33:03;16.92;;;7.03;;
70297;SDS011;57702;44.420;20.298;2023-01-15T02:35:34;11.68;;;8.40;;
70297;SDS011;57702;44.420;20.298;2023-01-15T02:38:02;11.98;;;5.95;;
70297;SDS011;57702;44.420;20.298;2023-01-15T02:40:30;15.38;;;9.93;;
70297;SDS011;57702;44.420;20.298;2023-01-15T02:42:57;18.52;;;8.85;;
70297;SDS011;57702;44.420;20.298;2023-01-15T02:45:31;9.48;;;6.40;;
70297;SDS011;57702;44.420;20.298;2023-01-15T02:47:59;21.67;;;7.50;;
70297;SDS011;57702;44.420;20.298;2023-01-15T02:50:29;10.68;;;6.75;;
70297;SDS011;57702;44.420;20.298;2023-01-15T02:52:57;7.05;;;6.38;;
70297;SDS011;57702;44.420;20.298;2023-01-15T02:55:28;14.10;;;6.93;;
70297;SDS011;57702;44.420;20.298;2023-01-15T02:57:56;10.73;;;7.20;;
70297;SDS011;57702;44.420;20.298;2023-01-15T03:00:25;9.98;;;7.05;;
70297;SDS011;57702;44.420;20.298;2023-01-15T03:03:35;10.52;;;7.60;;
70297;SDS011;57702;44.420;20.298;2023-01-15T03:05:54;7.38;;;5.63;;
70297;SDS011;57702;44.420;20.298;2023-01-15T03:11:01;6.53;;;5.63;;
70297;SDS011;57702;44.420;20.298;2023-01-15T03:16:44;8.75;;;5.85;;
70297;SDS011;57702;44.420;20.298;2023-01-15T03:21:47;5.68;;;4.18;;
70297;SDS011;57702;44.420;20.298;2023-01-15T03:24:20;7.45;;;5.88;;
70297;SDS011;57702;44.420;20.298;2023-01-15T03:26:50;17.77;;;8.18;;
70297;SDS011;57702;44.420;20.298;2023-01-15T03:29:17;8.80;;;8.00;;
70297;SDS011;57702;44.420;20.298;2023-01-15T03:31:44;11.18;;;6.50;;
70297;SDS011;57702;44.420;20.298;2023-01-15T03:34:10;7.20;;;5.00;;
70297;SDS011;57702;44.420;20.298;2023-01-15T03:36:37;10.88;;;7.75;;
70297;SDS011;57702;44.420;20.298;2023-01-15T03:39:03;10.60;;;4.97;;
70297;SDS011;57702;44.420;20.298;2023-01-15T03:44:11;17.15;;;8.75;;
70297;SDS011;57702;44.420;20.298;2023-01-15T03:46:52;19.65;;;8.70;;
70297;SDS011;57702;44.420;20.298;2023-01-15T03:52:00;12.30;;;7.30;;
70297;SDS011;57702;44.420;20.298;2023-01-15T03:54:31;10.57;;;5.05;;
70297;SDS011;57702;44.420;20.298;2023-01-15T03:57:01;5.93;;;5.23;;
70297;SDS011;57702;44.420;20.298;2023-01-15T03:59:34;10.27;;;5.82;;
70297;SDS011;57702;44.420;20.298;2023-01-15T04:04:28;6.10;;;5.55;;
70297;SDS011;57702;44.420;20.298;2023-01-15T04:06:55;5.28;;;4.75;;
70297;SDS011;57702;44.420;20.298;2023-01-15T04:09:22;5.50;;;5.05;;
70297;SDS011;57702;44.420;20.298;2023-01-15T04:11:48;12.68;;;4.30;;
70297;SDS011;57702;44.420;20.298;2023-01-15T04:14:14;9.50;;;5.60;;
70297;SDS011;57702;44.420;20.298;2023-01-15T04:16:40;6.57;;;5.95;;
70297;SDS011;57702;44.420;20.298;2023-01-15T04:19:06;8.50;;;5.03;;
70297;SDS011;57702;44.420;20.298;2023-01-15T04:21:33;4.15;;;3.65;;
70297;SDS011;57702;44.420;20.298;2023-01-15T04:23:59;17.45;;;6.95;;
70297;SDS011;57702;44.420;20.298;2023-01-15T04:26:25;19.02;;;6.32;;
70297;SDS011;57702;44.420;20.298;2023-01-15T04:28:51;6.10;;;5.50;;
70297;SDS011;57702;44.420;20.298;2023-01-15T04:31:17;9.52;;;5.97;;
70297;SDS011;57702;44.420;20.298;2023-01-15T04:33:43;6.65;;;4.50;;
70297;SDS011;57702;44.420;20.298;2023-01-15T04:36:10;7.60;;;7.10;;
70297;SDS011;57702;44.420;20.298;2023-01-15T04:38:36;9.05;;;8.07;;
70297;SDS011;57702;44.420;20.298;2023-01-15T04:41:03;8.93;;;6.00;;
70297;SDS011;57702;44.420;20.298;2023-01-15T04:43:48;7.78;;;5.25;;
70297;SDS011;57702;44.420;20.298;2023-01-15T04:46:33;8.40;;;5.97;;
70297;SDS011;57702;44.420;20.298;2023-01-15T04:48:59;6.97;;;5.43;;
70297;SDS011;57702;44.420;20.298;2023-01-15T04:51:26;5.72;;;4.60;;
70297;SDS011;57702;44.420;20.298;2023-01-15T04:53:52;20.73;;;6.90;;
70297;SDS011;57702;44.420;20.298;2023-01-15T04:56:18;9.23;;;7.03;;
70297;SDS011;57702;44.420;20.298;2023-01-15T04:58:44;7.05;;;5.20;;
70297;SDS011;57702;44.420;20.298;2023-01-15T05:01:11;8.20;;;7.28;;
70297;SDS011;57702;44.420;20.298;2023-01-15T05:03:37;5.57;;;4.25;;
70297;SDS011;57702;44.420;20.298;2023-01-15T05:06:04;7.60;;;6.57;;
70297;SDS011;57702;44.420;20.298;2023-01-15T05:08:30;6.20;;;4.20;;
70297;SDS011;57702;44.420;20.298;2023-01-15T05:11:00;13.50;;;8.25;;
70297;SDS011;57702;44.420;20.298;2023-01-15T05:13:28;6.60;;;5.55;;
70297;SDS011;57702;44.420;20.298;2023-01-15T05:15:56;17.50;;;6.90;;
70297;SDS011;57702;44.420;20.298;2023-01-15T05:18:22;7.97;;;5.53;;
70297;SDS011;57702;44.420;20.298;2023-01-15T05:20:48;3.72;;;3.42;;
70297;SDS011;57702;44.420;20.298;2023-01-15T05:23:15;10.75;;;6.97;;
70297;SDS011;57702;44.420;20.298;2023-01-15T05:25:41;6.93;;;6.00;;
70297;SDS011;57702;44.420;20.298;2023-01-15T05:28:07;7.40;;;5.90;;
70297;SDS011;57702;44.420;20.298;2023-01-15T05:30:34;5.72;;;5.20;;
70297;SDS011;57702;44.420;20.298;2023-01-15T05:33:00;6.22;;;5.68;;
70297;SDS011;57702;44.420;20.298;2023-01-15T05:35:26;58.85;;;17.13;;
70297;SDS011;57702;44.420;20.298;2023-01-15T05:37:52;30.35;;;13.88;;
70297;SDS011;57702;44.420;20.298;2023-01-15T05:40:18;27.65;;;11.77;;
70297;SDS011;57702;44.420;20.298;2023-01-15T05:42:44;10.20;;;7.45;;
70297;SDS011;57702;44.420;20.298;2023-01-15T05:45:11;6.53;;;5.40;;
70297;SDS011;57702;44.420;20.298;2023-01-15T05:47:37;13.07;;;6.47;;
70297;SDS011;57702;44.420;20.298;2023-01-15T05:50:03;10.68;;;5.80;;
70297;SDS011;57702;44.420;20.298;2023-01-15T05:52:29;6.63;;;4.97;;
70297;SDS011;57702;44.420;20.298;2023-01-15T05:54:55;5.97;;;4.38;;
70297;SDS011;57702;44.420;20.298;2023-01-15T05:57:21;5.65;;;5.13;;
70297;SDS011;57702;44.420;20.298;2023-01-15T05:59:47;5.97;;;5.38;;
70297;SDS011;57702;44.420;20.298;2023-01-15T06:02:15;7.45;;;6.63;;
70297;SDS011;57702;44.420;20.298;2023-01-15T06:04:41;6.47;;;5.97;;
70297;SDS011;57702;44.420;20.298;2023-01-15T06:07:07;7.72;;;5.80;;
70297;SDS011;57702;44.420;20.298;2023-01-15T06:09:33;11.98;;;5.00;;
70297;SDS011;57702;44.420;20.298;2023-01-15T06:11:59;5.80;;;4.93;;
70297;SDS011;57702;44.420;20.298;2023-01-15T06:14:25;7.57;;;5.22;;
70297;SDS011;57702;44.420;20.298;2023-01-15T06:16:51;6.32;;;4.35;;
70297;SDS011;57702;44.420;20.298;2023-01-15T06:19:18;18.65;;;7.45;;
70297;SDS011;57702;44.420;20.298;2023-01-15T06:21:44;4.97;;;4.47;;
70297;SDS011;57702;44.420;20.298;2023-01-15T06:24:10;3.13;;;2.70;;
70297;SDS011;57702;44.420;20.298;2023-01-15T06:26:37;5.40;;;4.90;;
70297;SDS011;57702;44.420;20.298;2023-01-15T06:29:03;5.60;;;5.18;;
70297;SDS011;57702;44.420;20.298;2023-01-15T06:31:29;9.20;;;7.25;;
70297;SDS011;57702;44.420;20.298;2023-01-15T06:33:56;11.48;;;6.22;;
70297;SDS011;57702;44.420;20.298;2023-01-15T06:36:23;10.38;;;8.32;;
70297;SDS011;57702;44.420;20.298;2023-01-15T06:38:49;5.65;;;5.18;;
70297;SDS011;57702;44.420;20.298;2023-01-15T06:41:17;6.40;;;4.82;;
70297;SDS011;57702;44.420;20.298;2023-01-15T06:44:02;8.65;;;3.60;;
70297;SDS011;57702;44.420;20.298;2023-01-15T06:46:47;6.05;;;5.43;;
70297;SDS011;57702;44.420;20.298;2023-01-15T06:49:32;8.43;;;5.90;;
70297;SDS011;57702;44.420;20.298;2023-01-15T06:51:59;10.10;;;9.20;;
70297;SDS011;57702;44.420;20.298;2023-01-15T06:54:25;8.05;;;6.28;;
70297;SDS011;57702;44.420;20.298;2023-01-15T06:56:51;13.88;;;10.63;;
70297;SDS011;57702;44.420;20.298;2023-01-15T06:59:18;25.73;;;13.05;;
70297;SDS011;57702;44.420;20.298;2023-01-15T07:01:45;58.40;;;25.92;;
70297;SDS011;57702;44.420;20.298;2023-01-15T07:04:11;59.85;;;30.30;;
70297;SDS011;57702;44.420;20.298;2023-01-15T07:06:37;33.70;;;21.67;;
70297;SDS011;57702;44.420;20.298;2023-01-15T07:09:03;40.88;;;20.45;;
70297;SDS011;57702;44.420;20.298;2023-01-15T07:11:30;33.15;;;17.00;;
70297;SDS011;57702;44.420;20.298;2023-01-15T07:13:56;31.80;;;15.63;;
70297;SDS011;57702;44.420;20.298;2023-01-15T07:16:32;21.65;;;12.18;;
70297;SDS011;57702;44.420;20.298;2023-01-15T07:18:58;34.55;;;10.50;;
70297;SDS011;57702;44.420;20.298;2023-01-15T07:21:25;43.30;;;12.52;;
70297;SDS011;57702;44.420;20.298;2023-01-15T07:23:51;29.77;;;13.93;;
70297;SDS011;57702;44.420;20.298;2023-01-15T07:26:17;50.45;;;21.77;;
70297;SDS011;57702;44.420;20.298;2023-01-15T07:28:43;32.63;;;17.95;;
70297;SDS011;57702;44.420;20.298;2023-01-15T07:31:10;24.92;;;15.57;;
70297;SDS011;57702;44.420;20.298;2023-01-15T07:33:36;41.38;;;15.70;;
70297;SDS011;57702;44.420;20.298;2023-01-15T07:36:03;45.55;;;13.82;;
70297;SDS011;57702;44.420;20.298;2023-01-15T07:38:29;55.00;;;21.35;;
70297;SDS011;57702;44.420;20.298;2023-01-15T07:40:55;48.00;;;18.60;;
70297;SDS011;57702;44.420;20.298;2023-01-15T07:43:40;36.90;;;15.50;;
70297;SDS011;57702;44.420;20.298;2023-01-15T07:46:25;46.70;;;16.35;;
70297;SDS011;57702;44.420;20.298;2023-01-15T07:49:10;24.50;;;10.68;;
70297;SDS011;57702;44.420;20.298;2023-01-15T07:51:54;12.27;;;7.85;;
70297;SDS011;57702;44.420;20.298;2023-01-15T07:54:21;16.00;;;10.82;;
70297;SDS011;57702;44.420;20.298;2023-01-15T07:56:47;7.88;;;6.78;;
70297;SDS011;57702;44.420;20.298;2023-01-15T07:59:13;22.85;;;11.82;;
70297;SDS011;57702;44.420;20.298;2023-01-15T08:01:39;25.92;;;12.98;;
70297;SDS011;57702;44.420;20.298;2023-01-15T08:04:05;27.65;;;15.88;;
70297;SDS011;57702;44.420;20.298;2023-01-15T08:06:31;42.55;;;17.35;;
70297;SDS011;57702;44.420;20.298;2023-01-15T08:08:58;56.08;;;17.60;;
70297;SDS011;57702;44.420;20.298;2023-01-15T08:11:24;67.50;;;21.08;;
70297;SDS011;57702;44.420;20.298;2023-01-15T08:14:09;62.50;;;25.40;;
70297;SDS011;57702;44.420;20.298;2023-01-15T08:16:55;32.65;;;17.38;;
70297;SDS011;57702;44.420;20.298;2023-01-15T08:19:21;15.25;;;10.15;;
70297;SDS011;57702;44.420;20.298;2023-01-15T08:21:49;25.42;;;12.40;;
70297;SDS011;57702;44.420;20.298;2023-01-15T08:24:16;67.50;;;17.75;;
70297;SDS011;57702;44.420;20.298;2023-01-15T08:26:42;47.83;;;20.65;;
70297;SDS011;57702;44.420;20.298;2023-01-15T08:29:08;15.82;;;13.68;;
70297;SDS011;57702;44.420;20.298;2023-01-15T08:31:34;22.13;;;12.13;;
70297;SDS011;57702;44.420;20.298;2023-01-15T08:34:01;77.30;;;17.65;;
70297;SDS011;57702;44.420;20.298;2023-01-15T08:36:27;48.33;;;17.42;;
70297;SDS011;57702;44.420;20.298;2023-01-15T08:38:53;26.10;;;14.55;;
70297;SDS011;57702;44.420;20.298;2023-01-15T08:41:20;13.80;;;10.52;;
70297;SDS011;57702;44.420;20.298;2023-01-15T08:43:46;37.85;;;19.27;;
70297;SDS011;57702;44.420;20.298;2023-01-15T08:46:12;43.45;;;21.90;;
70297;SDS011;57702;44.420;20.298;2023-01-15T08:48:38;23.55;;;13.40;;
70297;SDS011;57702;44.420;20.298;2023-01-15T08:51:05;17.40;;;10.90;;
70297;SDS011;57702;44.420;20.298;2023-01-15T08:53:31;20.55;;;8.38;;
70297;SDS011;57702;44.420;20.298;2023-01-15T08:55:58;21.20;;;8.43;;
70297;SDS011;57702;44.420;20.298;2023-01-15T08:58:26;23.63;;;9.93;;
70297;SDS011;57702;44.420;20.298;2023-01-15T09:00:53;20.58;;;12.48;;
70297;SDS011;57702;44.420;20.298;2023-01-15T09:03:19;27.88;;;10.55;;
70297;SDS011;57702;44.420;20.298;2023-01-15T09:05:45;29.98;;;13.68;;
70297;SDS011;57702;44.420;20.298;2023-01-15T09:08:12;11.57;;;9.40;;
70297;SDS011;57702;44.420;20.298;2023-01-15T09:10:40;21.98;;;8.45;;
70297;SDS011;57702;44.420;20.298;2023-01-15T09:13:06;21.80;;;11.18;;
70297;SDS011;57702;44.420;20.298;2023-01-15T09:15:32;13.30;;;6.20;;
70297;SDS011;57702;44.420;20.298;2023-01-15T09:17:58;16.67;;;5.28;;
70297;SDS011;57702;44.420;20.298;2023-01-15T09:20:25;23.08;;;12.52;;
70297;SDS011;57702;44.420;20.298;2023-01-15T09:22:52;21.25;;;9.35;;
70297;SDS011;57702;44.420;20.298;2023-01-15T09:25:21;15.20;;;5.90;;
70297;SDS011;57702;44.420;20.298;2023-01-15T09:27:48;9.57;;;4.85;;
70297;SDS011;57702;44.420;20.298;2023-01-15T09:30:16;4.22;;;2.85;;
70297;SDS011;57702;44.420;20.298;2023-01-15T09:32:43;4.30;;;3.97;;
70297;SDS011;57702;44.420;20.298;2023-01-15T09:35:09;5.85;;;3.40;;
70297;SDS011;57702;44.420;20.298;2023-01-15T09:37:35;3.00;;;2.00;;
70297;SDS011;57702;44.420;20.298;2023-01-15T09:40:02;3.88;;;3.47;;
70297;SDS011;57702;44.420;20.298;2023-01-15T09:42:50;3.22;;;2.13;;
70297;SDS011;57702;44.420;20.298;2023-01-15T09:45:32;3.55;;;2.88;;
70297;SDS011;57702;44.420;20.298;2023-01-15T09:52:56;1.80;;;1.67;;
70297;SDS011;57702;44.420;20.298;2023-01-15T09:55:30;4.00;;;3.03;;
70297;SDS011;57702;44.420;20.298;2023-01-15T09:57:58;7.85;;;5.18;;
70297;SDS011;57702;44.420;20.298;2023-01-15T10:00:26;15.55;;;7.35;;
70297;SDS011;57702;44.420;20.298;2023-01-15T10:02:57;32.55;;;11.70;;
70297;SDS011;57702;44.420;20.298;2023-01-15T10:05:29;6.10;;;4.47;;
70297;SDS011;57702;44.420;20.298;2023-01-15T10:08:01;40.95;;;15.07;;
70297;SDS011;57702;44.420;20.298;2023-01-15T10:10:34;16.63;;;9.50;;
70297;SDS011;57702;44.420;20.298;2023-01-15T10:13:07;5.22;;;3.70;;
70297;SDS011;57702;44.420;20.298;2023-01-15T10:15:35;13.80;;;7.90;;
70297;SDS011;57702;44.420;20.298;2023-01-15T10:18:03;17.95;;;8.18;;
70297;SDS011;57702;44.420;20.298;2023-01-15T10:25:26;6.32;;;4.95;;
70297;SDS011;57702;44.420;20.298;2023-01-15T10:27:53;3.88;;;2.05;;
70297;SDS011;57702;44.420;20.298;2023-01-15T10:30:28;11.88;;;4.55;;
70297;SDS011;57702;44.420;20.298;2023-01-15T10:32:58;4.95;;;4.07;;
70297;SDS011;57702;44.420;20.298;2023-01-15T10:37:56;2.15;;;1.52;;
70297;SDS011;57702;44.420;20.298;2023-01-15T10:43:18;2.15;;;1.95;;
70297;SDS011;57702;44.420;20.298;2023-01-15T10:45:47;17.08;;;7.50;;
70297;SDS011;57702;44.420;20.298;2023-01-15T10:48:18;3.92;;;2.97;;
70297;SDS011;57702;44.420;20.298;2023-01-15T10:50:46;9.07;;;2.15;;
70297;SDS011;57702;44.420;20.298;2023-01-15T10:58:46;1.55;;;1.45;;
70297;SDS011;57702;44.420;20.298;2023-01-15T11:01:17;3.40;;;2.53;;
70297;SDS011;57702;44.420;20.298;2023-01-15T11:03:45;3.38;;;2.33;;
70297;SDS011;57702;44.420;20.298;2023-01-15T11:06:13;2.40;;;1.70;;
70297;SDS011;57702;44.420;20.298;2023-01-15T11:08:41;3.22;;;2.55;;
70297;SDS011;57702;44.420;20.298;2023-01-15T11:14:11;1.38;;;1.38;;
70297;SDS011;57702;44.420;20.298;2023-01-15T11:16:55;1.77;;;1.33;;
70297;SDS011;57702;44.420;20.298;2023-01-15T11:19:40;2.03;;;1.75;;
70297;SDS011;57702;44.420;20.298;2023-01-15T11:22:14;3.22;;;2.42;;
70297;SDS011;57702;44.420;20.298;2023-01-15T11:24:51;2.35;;;1.55;;
70297;SDS011;57702;44.420;20.298;2023-01-15T11:27:23;5.20;;;2.67;;
70297;SDS011;57702;44.420;20.298;2023-01-15T11:29:54;2.05;;;1.35;;
70297;SDS011;57702;44.420;20.298;2023-01-15T11:32:42;1.52;;;1.45;;
70297;SDS011;57702;44.420;20.298;2023-01-15T11:37:33;3.05;;;1.55;;
70297;SDS011;57702;44.420;20.298;2023-01-15T11:40:00;3.03;;;2.13;;
70297;SDS011;57702;44.420;20.298;2023-01-15T11:42:32;1.17;;;1.10;;
70297;SDS011;57702;44.420;20.298;2023-01-15T11:45:20;1.77;;;1.50;;
70297;SDS011;57702;44.420;20.298;2023-01-15T11:48:41;0.60;;;0.60;;
70297;SDS011;57702;44.420;20.298;2023-01-15T11:51:16;2.15;;;1.73;;
70297;SDS011;57702;44.420;20.298;2023-01-15T11:53:44;5.18;;;1.83;;
70297;SDS011;57702;44.420;20.298;2023-01-15T11:56:12;1.92;;;1.83;;
70297;SDS011;57702;44.420;20.298;2023-01-15T12:01:06;0.73;;;0.63;;
70297;SDS011;57702;44.420;20.298;2023-01-15T12:03:33;4.20;;;2.00;;
70297;SDS011;57702;44.420;20.298;2023-01-15T12:06:02;1.90;;;1.80;;
70297;SDS011;57702;44.420;20.298;2023-01-15T12:13:58;0.82;;;0.82;;
70297;SDS011;57702;44.420;20.298;2023-01-15T12:29:20;2.33;;;2.00;;
70297;SDS011;57702;44.420;20.298;2023-01-15T12:34:31;1.95;;;0.70;;
70297;SDS011;57702;44.420;20.298;2023-01-15T12:37:03;0.77;;;0.77;;
70297;SDS011;57702;44.420;20.298;2023-01-15T12:42:00;1.65;;;1.55;;
70297;SDS011;57702;44.420;20.298;2023-01-15T12:44:46;7.32;;;2.70;;
70297;SDS011;57702;44.420;20.298;2023-01-15T12:52:46;1.17;;;1.05;;
70297;SDS011;57702;44.420;20.298;2023-01-15T12:55:21;2.05;;;1.60;;
70297;SDS011;57702;44.420;20.298;2023-01-15T12:57:50;1.45;;;1.35;;
70297;SDS011;57702;44.420;20.298;2023-01-15T13:00:23;1.70;;;1.60;;
70297;SDS011;57702;44.420;20.298;2023-01-15T13:05:26;1.63;;;1.52;;
70297;SDS011;57702;44.420;20.298;2023-01-15T13:07:55;5.70;;;3.67;;
70297;SDS011;57702;44.420;20.298;2023-01-15T13:10:25;2.85;;;1.33;;
70297;SDS011;57702;44.420;20.298;2023-01-15T13:12:57;8.15;;;4.68;;
70297;SDS011;57702;44.420;20.298;2023-01-15T13:15:26;6.68;;;3.03;;
70297;SDS011;57702;44.420;20.298;2023-01-15T13:18:05;7.32;;;4.57;;
70297;SDS011;57702;44.420;20.298;2023-01-15T13:20:44;3.05;;;2.53;;
70297;SDS011;57702;44.420;20.298;2023-01-15T13:36:08;5.80;;;2.35;;
70297;SDS011;57702;44.420;20.298;2023-01-15T13:38:38;8.98;;;3.22;;
70297;SDS011;57702;44.420;20.298;2023-01-15T13:41:05;2.25;;;2.05;;
70297;SDS011;57702;44.420;20.298;2023-01-15T13:46:03;2.08;;;1.83;;
70297;SDS011;57702;44.420;20.298;2023-01-15T13:49:03;2.35;;;2.15;;
70297;SDS011;57702;44.420;20.298;2023-01-15T13:51:24;9.57;;;3.53;;
70297;SDS011;57702;44.420;20.298;2023-01-15T13:53:52;2.28;;;1.33;;
70297;SDS011;57702;44.420;20.298;2023-01-15T13:56:26;7.03;;;4.25;;
70297;SDS011;57702;44.420;20.298;2023-01-15T13:58:54;4.00;;;3.35;;
70297;SDS011;57702;44.420;20.298;2023-01-15T14:01:24;6.53;;;3.83;;
70297;SDS011;57702;44.420;20.298;2023-01-15T14:04:02;1.42;;;1.33;;
70297;SDS011;57702;44.420;20.298;2023-01-15T14:06:41;13.00;;;6.63;;
70297;SDS011;57702;44.420;20.298;2023-01-15T14:14:31;3.17;;;2.97;;
70297;SDS011;57702;44.420;20.298;2023-01-15T14:32:36;22.58;;;7.32;;
70297;SDS011;57702;44.420;20.298;2023-01-15T14:35:14;10.38;;;4.72;;
70297;SDS011;57702;44.420;20.298;2023-01-15T14:37:47;9.43;;;5.35;;
70297;SDS011;57702;44.420;20.298;2023-01-15T14:40:21;9.68;;;3.55;;
70297;SDS011;57702;44.420;20.298;2023-01-15T14:42:50;3.88;;;2.53;;
70297;SDS011;57702;44.420;20.298;2023-01-15T14:47:56;13.35;;;4.82;;
70297;SDS011;57702;44.420;20.298;2023-01-15T14:52:49;24.58;;;6.13;;
70297;SDS011;57702;44.420;20.298;2023-01-15T14:55:16;21.10;;;7.88;;
70297;SDS011;57702;44.420;20.298;2023-01-15T14:57:56;14.75;;;4.32;;
70297;SDS011;57702;44.420;20.298;2023-01-15T15:00:23;5.95;;;3.17;;
70297;SDS011;57702;44.420;20.298;2023-01-15T15:02:54;15.02;;;6.18;;
70297;SDS011;57702;44.420;20.298;2023-01-15T15:05:22;14.77;;;6.25;;
70297;SDS011;57702;44.420;20.298;2023-01-15T15:07:49;6.22;;;3.72;;
70297;SDS011;57702;44.420;20.298;2023-01-15T15:10:32;17.23;;;4.20;;
70297;SDS011;57702;44.420;20.298;2023-01-15T15:15:49;27.02;;;5.93;;
70297;SDS011;57702;44.420;20.298;2023-01-15T15:18:27;12.27;;;7.57;;
70297;SDS011;57702;44.420;20.298;2023-01-15T15:28:58;34.88;;;13.68;;
70297;SDS011;57702;44.420;20.298;2023-01-15T15:31:25;31.88;;;14.20;;
70297;SDS011;57702;44.420;20.298;2023-01-15T15:33:52;66.30;;;14.75;;
70297;SDS011;57702;44.420;20.298;2023-01-15T15:36:20;64.47;;;19.52;;
70297;SDS011;57702;44.420;20.298;2023-01-15T15:38:53;121.18;;;22.08;;
70297;SDS011;57702;44.420;20.298;2023-01-15T15:41:20;106.63;;;26.55;;
70297;SDS011;57702;44.420;20.298;2023-01-15T15:44:26;42.70;;;15.27;;
70297;SDS011;57702;44.420;20.298;2023-01-15T15:47:18;14.35;;;6.18;;
70297;SDS011;57702;44.420;20.298;2023-01-15T15:50:03;9.90;;;5.68;;
70297;SDS011;57702;44.420;20.298;2023-01-15T15:52:30;66.18;;;17.75;;
70297;SDS011;57702;44.420;20.298;2023-01-15T15:54:59;426.95;;;88.13;;
70297;SDS011;57702;44.420;20.298;2023-01-15T15:57:28;40.83;;;19.00;;
70297;SDS011;57702;44.420;20.298;2023-01-15T15:59:56;21.38;;;15.35;;
70297;SDS011;57702;44.420;20.298;2023-01-15T16:02:32;106.40;;;21.05;;
70297;SDS011;57702;44.420;20.298;2023-01-15T16:05:01;92.43;;;27.55;;
70297;SDS011;57702;44.420;20.298;2023-01-15T16:07:31;132.65;;;35.80;;
70297;SDS011;57702;44.420;20.298;2023-01-15T16:09:58;128.27;;;49.25;;
70297;SDS011;57702;44.420;20.298;2023-01-15T16:12:26;191.55;;;66.03;;
70297;SDS011;57702;44.420;20.298;2023-01-15T16:14:54;404.20;;;146.18;;
70297;SDS011;57702;44.420;20.298;2023-01-15T16:17:21;269.83;;;98.38;;
70297;SDS011;57702;44.420;20.298;2023-01-15T16:19:51;143.82;;;58.28;;
70297;SDS011;57702;44.420;20.298;2023-01-15T16:22:18;56.45;;;25.27;;
70297;SDS011;57702;44.420;20.298;2023-01-15T16:25:19;35.13;;;15.02;;
70297;SDS011;57702;44.420;20.298;2023-01-15T16:30:04;38.33;;;16.45;;
70297;SDS011;57702;44.420;20.298;2023-01-15T16:32:30;57.08;;;23.58;;
70297;SDS011;57702;44.420;20.298;2023-01-15T16:35:04;23.92;;;10.35;;
70297;SDS011;57702;44.420;20.298;2023-01-15T16:37:31;82.25;;;34.95;;
70297;SDS011;57702;44.420;20.298;2023-01-15T16:40:00;64.35;;;24.75;;
70297;SDS011;57702;44.420;20.298;2023-01-15T16:42:35;21.25;;;9.65;;
70297;SDS011;57702;44.420;20.298;2023-01-15T16:50:33;71.32;;;15.50;;
70297;SDS011;57702;44.420;20.298;2023-01-15T16:53:00;58.67;;;18.40;;
70297;SDS011;57702;44.420;20.298;2023-01-15T17:00:40;28.17;;;12.65;;
70297;SDS011;57702;44.420;20.298;2023-01-15T17:03:17;35.92;;;12.13;;
70297;SDS011;57702;44.420;20.298;2023-01-15T17:05:47;12.93;;;6.15;;
70297;SDS011;57702;44.420;20.298;2023-01-15T17:08:16;13.43;;;8.90;;
70297;SDS011;57702;44.420;20.298;2023-01-15T17:10:58;6.60;;;4.82;;